Time;durP1;ratioP1;P1;durP2;ratioP2;P2;SDS_P1;SDS_P2;PMS_P1;PMS_P2;Temp;Humidity;BMP_temperature;BMP_pressure;BME280_temperature;BME280_humidity;BME280_pressure;Samples;Min_cycle;Max_cycle;Signal;HPM_P1;HPM_P2
2020/12/27 00:01:28;;;;;;;8.73;7.43;;;;;;;;;;4422428;32;20133;-79
2020/12/27 00:03:53;;;;;;;12.17;7.50;;;;;;;;;;4420515;32;20582;-79
2020/12/27 00:06:24;;;;;;;8.90;6.97;;;;;;;;;;4420370;32;20238;-80
2020/12/27 00:08:49;;;;;;;10.27;6.87;;;;;;;;;;4422231;32;20157;-78
2020/12/27 00:11:16;;;;;;;11.33;7.90;;;;;;;;;;4420566;32;20220;-79
2020/12/27 00:13:41;;;;;;;10.97;8.60;;;;;;;;;;4420577;32;20222;-80
2020/12/27 00:16:06;;;;;;;11.47;8.17;;;;;;;;;;4420219;32;20169;-79
2020/12/27 00:18:35;;;;;;;12.17;9.20;;;;;;;;;;4420233;32;20192;-79
2020/12/27 00:21:00;;;;;;;12.80;9.00;;;;;;;;;;4420126;32;20157;-78
2020/12/27 00:23:25;;;;;;;15.10;9.63;;;;;;;;;;4420059;32;20187;-78
2020/12/27 00:25:50;;;;;;;16.07;12.03;;;;;;;;;;4421616;32;20201;-79
2020/12/27 00:28:16;;;;;;;17.83;12.07;;;;;;;;;;4420056;32;20561;-79
2020/12/27 00:30:44;;;;;;;16.53;12.03;;;;;;;;;;4421241;32;20176;-79
2020/12/27 00:33:12;;;;;;;15.67;10.30;;;;;;;;;;4419884;32;20157;-79
2020/12/27 00:35:37;;;;;;;17.07;11.77;;;;;;;;;;4421310;32;20569;-79
2020/12/27 00:38:05;;;;;;;15.20;11.13;;;;;;;;;;4419926;32;20166;-79
2020/12/27 00:40:33;;;;;;;16.47;12.00;;;;;;;;;;4419870;32;20583;-77
2020/12/27 00:42:58;;;;;;;13.23;8.67;;;;;;;;;;4419808;32;20165;-79
2020/12/27 00:45:24;;;;;;;14.17;9.33;;;;;;;;;;4421130;32;20162;-79
2020/12/27 00:47:49;;;;;;;14.60;9.77;;;;;;;;;;4421616;32;20161;-78
2020/12/27 00:50:27;;;;;;;;;;;;;;;;;;;;;
2020/12/27 00:52:58;;;;;;;14.30;10.40;;;;;;;;;;4421349;32;20137;-79
2020/12/27 00:55:41;;;;;;;15.67;9.90;;;;;;;;;;4421068;32;20166;-79
2020/12/27 00:58:12;;;;;;;15.87;10.60;;;;;;;;;;4420166;32;20170;-79
2020/12/27 01:00:37;;;;;;;15.30;9.70;;;;;;;;;;4419578;32;20224;-80
2020/12/27 01:03:03;;;;;;;15.67;10.23;;;;;;;;;;4419820;32;20199;-79
2020/12/27 01:05:28;;;;;;;16.17;10.10;;;;;;;;;;4418859;32;20169;-79
2020/12/27 01:07:54;;;;;;;16.63;9.70;;;;;;;;;;4420904;32;20482;-80
2020/12/27 01:10:19;;;;;;;13.13;10.13;;;;;;;;;;4419309;32;20240;-80
2020/12/27 01:12:45;;;;;;;13.70;10.67;;;;;;;;;;4419751;32;20211;-79
2020/12/27 01:15:11;;;;;;;14.47;10.40;;;;;;;;;;4420609;32;20550;-80
2020/12/27 01:17:40;;;;;;;14.60;10.13;;;;;;;;;;4421466;32;20558;-79
2020/12/27 01:20:05;;;;;;;13.87;9.10;;;;;;;;;;4419399;32;20594;-79
2020/12/27 01:22:34;;;;;;;15.33;9.80;;;;;;;;;;4421222;32;20167;-79
2020/12/27 01:24:59;;;;;;;14.77;10.70;;;;;;;;;;4419257;32;20165;-78
2020/12/27 01:27:25;;;;;;;10.97;7.53;;;;;;;;;;4419265;32;20283;-80
2020/12/27 01:29:50;;;;;;;14.30;9.63;;;;;;;;;;4419247;32;20181;-79
2020/12/27 01:32:15;;;;;;;13.87;8.77;;;;;;;;;;4419725;32;20170;-78
2020/12/27 01:34:41;;;;;;;18.57;11.20;;;;;;;;;;4420782;32;20177;-78
2020/12/27 01:37:06;;;;;;;16.03;10.30;;;;;;;;;;4419102;32;20191;-77
2020/12/27 01:39:31;;;;;;;16.27;10.97;;;;;;;;;;4419175;32;20204;-77
2020/12/27 01:41:56;;;;;;;17.83;11.30;;;;;;;;;;4420310;32;20138;-77
2020/12/27 01:44:21;;;;;;;16.20;10.77;;;;;;;;;;4419227;32;20189;-77
2020/12/27 01:46:47;;;;;;;17.10;10.33;;;;;;;;;;4420511;32;20130;-77
2020/12/27 01:49:13;;;;;;;18.17;11.57;;;;;;;;;;4418877;32;20216;-77
2020/12/27 01:51:38;;;;;;;16.43;11.53;;;;;;;;;;4420557;32;20178;-77
2020/12/27 01:54:04;;;;;;;16.33;10.67;;;;;;;;;;4419030;32;20166;-77
2020/12/27 01:56:40;;;;;;;14.90;11.40;;;;;;;;;;4418990;32;20242;-77
2020/12/27 01:59:09;;;;;;;14.33;11.00;;;;;;;;;;4420676;32;20137;-78
2020/12/27 02:01:37;;;;;;;14.57;9.40;;;;;;;;;;4419170;32;20214;-76
2020/12/27 02:04:06;;;;;;;13.30;9.13;;;;;;;;;;4408591;32;20630;-77
2020/12/27 02:06:34;;;;;;;15.23;10.93;;;;;;;;;;4405503;32;20135;-78
2020/12/27 02:08:59;;;;;;;13.80;9.67;;;;;;;;;;4403756;32;20158;-77
2020/12/27 02:11:25;;;;;;;14.40;9.50;;;;;;;;;;4406703;32;20486;-78
2020/12/27 02:13:54;;;;;;;14.57;10.70;;;;;;;;;;4418888;32;20162;-79
2020/12/27 02:16:20;;;;;;;16.50;11.10;;;;;;;;;;4419116;32;20162;-79
2020/12/27 02:18:46;;;;;;;17.23;10.57;;;;;;;;;;4423676;32;20138;-77
2020/12/27 02:21:11;;;;;;;15.50;11.43;;;;;;;;;;4422759;32;20227;-78
2020/12/27 02:23:37;;;;;;;13.37;10.03;;;;;;;;;;4422683;32;20204;-78
2020/12/27 02:26:03;;;;;;;18.57;10.63;;;;;;;;;;4423041;32;20161;-77
2020/12/27 02:28:28;;;;;;;14.40;10.00;;;;;;;;;;4422237;32;20161;-78
2020/12/27 02:30:54;;;;;;;15.87;9.87;;;;;;;;;;4422960;32;20489;-77
2020/12/27 02:33:19;;;;;;;18.00;12.43;;;;;;;;;;4421633;32;20235;-77
2020/12/27 02:35:44;;;;;;;12.63;8.40;;;;;;;;;;4421973;32;20190;-79
2020/12/27 02:38:09;;;;;;;15.63;10.40;;;;;;;;;;4421697;32;20220;-77
2020/12/27 02:40:34;;;;;;;15.27;10.27;;;;;;;;;;4423152;32;20581;-76
2020/12/27 02:43:00;;;;;;;15.50;10.30;;;;;;;;;;4423254;32;20204;-77
2020/12/27 02:45:25;;;;;;;18.13;11.10;;;;;;;;;;4421529;32;20166;-77
2020/12/27 02:47:50;;;;;;;15.77;10.70;;;;;;;;;;4423271;32;20492;-77
2020/12/27 02:50:16;;;;;;;20.37;8.63;;;;;;;;;;4435900;32;20179;-77
2020/12/27 02:52:41;;;;;;;12.83;9.87;;;;;;;;;;4412415;32;20227;-77
2020/12/27 02:55:06;;;;;;;15.97;10.27;;;;;;;;;;4423900;32;20563;-77
2020/12/27 02:57:32;;;;;;;14.57;9.90;;;;;;;;;;4424606;32;20223;-77
2020/12/27 02:59:57;;;;;;;14.77;9.97;;;;;;;;;;4438612;32;20204;-78
2020/12/27 03:02:22;;;;;;;15.90;10.47;;;;;;;;;;4423869;32;20188;-77
2020/12/27 03:04:48;;;;;;;14.80;9.90;;;;;;;;;;4438037;32;20541;-77
2020/12/27 03:07:13;;;;;;;15.13;10.20;;;;;;;;;;4438052;32;20517;-77
2020/12/27 03:09:38;;;;;;;15.10;9.73;;;;;;;;;;4438465;32;20160;-77
2020/12/27 03:12:04;;;;;;;12.13;7.37;;;;;;;;;;4438263;32;20587;-77
2020/12/27 03:14:29;;;;;;;13.07;8.40;;;;;;;;;;4423634;32;20478;-78
2020/12/27 03:16:55;;;;;;;11.30;8.37;;;;;;;;;;4423859;32;20168;-77
2020/12/27 03:19:23;;;;;;;12.07;8.03;;;;;;;;;;4424187;32;20169;-77
2020/12/27 03:21:48;;;;;;;13.97;8.20;;;;;;;;;;4423789;32;20222;-76
2020/12/27 03:24:13;;;;;;;11.23;7.53;;;;;;;;;;4423554;32;20169;-76
2020/12/27 03:26:39;;;;;;;9.80;6.67;;;;;;;;;;4438086;32;20519;-76
2020/12/27 03:29:05;;;;;;;12.33;8.77;;;;;;;;;;4422960;32;20600;-76
2020/12/27 03:31:30;;;;;;;13.00;9.43;;;;;;;;;;4437651;32;20202;-76
2020/12/27 03:33:56;;;;;;;11.73;8.00;;;;;;;;;;4423232;32;20533;-76
2020/12/27 03:36:23;;;;;;;12.93;8.70;;;;;;;;;;4423763;32;20259;-77
2020/12/27 03:38:51;;;;;;;12.60;8.23;;;;;;;;;;4423381;32;20173;-76
2020/12/27 03:41:17;;;;;;;10.80;7.67;;;;;;;;;;4421902;32;20146;-77
2020/12/27 03:43:42;;;;;;;12.73;8.40;;;;;;;;;;4423397;32;20526;-78
2020/12/27 03:46:08;;;;;;;11.53;7.57;;;;;;;;;;4408787;32;20228;-76
2020/12/27 03:48:33;;;;;;;13.20;8.73;;;;;;;;;;4414144;32;20230;-78
2020/12/27 03:50:58;;;;;;;10.13;8.30;;;;;;;;;;4429048;32;20233;-76
2020/12/27 03:53:23;;;;;;;12.53;7.73;;;;;;;;;;4434122;32;20218;-76
2020/12/27 03:55:48;;;;;;;10.30;7.73;;;;;;;;;;4419895;32;20198;-76
2020/12/27 03:58:14;;;;;;;10.83;8.00;;;;;;;;;;4437506;32;20145;-76
2020/12/27 04:00:39;;;;;;;12.27;8.30;;;;;;;;;;4437022;32;20149;-77
2020/12/27 04:03:04;;;;;;;14.37;7.97;;;;;;;;;;4437096;32;20191;-76
2020/12/27 04:05:29;;;;;;;10.93;7.17;;;;;;;;;;4434328;32;20153;-76
2020/12/27 04:07:54;;;;;;;10.53;7.17;;;;;;;;;;4422831;32;20526;-76
2020/12/27 04:10:20;;;;;;;7.90;6.40;;;;;;;;;;4422467;32;20154;-76
2020/12/27 04:12:46;;;;;;;7.73;6.30;;;;;;;;;;4421763;32;20177;-76
2020/12/27 04:15:12;;;;;;;7.10;4.70;;;;;;;;;;4407725;32;20239;-76
2020/12/27 04:17:37;;;;;;;7.63;5.67;;;;;;;;;;4407616;32;20602;-76
2020/12/27 04:20:03;;;;;;;9.10;6.50;;;;;;;;;;4407630;32;20162;-76
2020/12/27 04:22:28;;;;;;;7.17;5.57;;;;;;;;;;4407453;32;20184;-77
2020/12/27 04:24:53;;;;;;;8.00;5.47;;;;;;;;;;4420807;32;20173;-77
2020/12/27 04:27:19;;;;;;;8.23;5.97;;;;;;;;;;4422866;32;20195;-77
2020/12/27 04:29:44;;;;;;;5.80;4.30;;;;;;;;;;4437537;32;20138;-76
2020/12/27 04:32:09;;;;;;;7.37;4.80;;;;;;;;;;4422566;32;20169;-76
2020/12/27 04:34:34;;;;;;;8.40;5.63;;;;;;;;;;4437410;32;20233;-78
2020/12/27 04:37:00;;;;;;;7.63;3.90;;;;;;;;;;4436850;32;20160;-76
2020/12/27 04:39:25;;;;;;;5.63;4.13;;;;;;;;;;4437380;32;20145;-77
2020/12/27 04:41:50;;;;;;;5.50;3.97;;;;;;;;;;4422394;32;20233;-76
2020/12/27 04:44:15;;;;;;;5.90;4.30;;;;;;;;;;4422367;32;20232;-77
2020/12/27 04:46:41;;;;;;;4.97;4.00;;;;;;;;;;4436563;32;20133;-77
2020/12/27 04:49:09;;;;;;;5.67;4.10;;;;;;;;;;4436175;32;20152;-77
2020/12/27 04:51:35;;;;;;;6.30;3.83;;;;;;;;;;4422275;32;20154;-76
2020/12/27 04:54:00;;;;;;;5.80;4.50;;;;;;;;;;4436636;32;20488;-77
2020/12/27 04:56:26;;;;;;;5.80;4.60;;;;;;;;;;4436580;32;20464;-77
2020/12/27 04:58:53;;;;;;;7.23;4.20;;;;;;;;;;4422297;32;20157;-77
2020/12/27 05:01:18;;;;;;;8.53;4.80;;;;;;;;;;4410337;32;20166;-77
2020/12/27 05:03:43;;;;;;;5.37;3.77;;;;;;;;;;4406973;32;20275;-76
2020/12/27 05:06:14;;;;;;;6.60;3.63;;;;;;;;;;4420984;32;20141;-77
2020/12/27 05:08:42;;;;;;;6.87;3.50;;;;;;;;;;4406825;32;20196;-75
2020/12/27 05:11:07;;;;;;;5.83;4.17;;;;;;;;;;4420578;32;20590;-77
2020/12/27 05:13:32;;;;;;;4.57;3.40;;;;;;;;;;4407030;32;20162;-77
2020/12/27 05:16:02;;;;;;;5.77;3.77;;;;;;;;;;4420511;32;20193;-78
2020/12/27 05:18:27;;;;;;;8.10;3.20;;;;;;;;;;4420705;32;20130;-76
2020/12/27 05:20:53;;;;;;;4.73;3.40;;;;;;;;;;4423646;32;20529;-77
2020/12/27 05:23:23;;;;;;;7.10;3.40;;;;;;;;;;4421806;32;20554;-76
2020/12/27 05:25:48;;;;;;;5.37;3.17;;;;;;;;;;4421171;32;20582;-77
2020/12/27 05:28:14;;;;;;;3.90;3.40;;;;;;;;;;4407010;32;20222;-79
2020/12/27 05:30:43;;;;;;;3.43;2.37;;;;;;;;;;4420939;32;20187;-80
2020/12/27 05:33:12;;;;;;;3.93;3.07;;;;;;;;;;4420338;32;20422;-79
2020/12/27 05:35:38;;;;;;;4.53;3.13;;;;;;;;;;4421584;32;20142;-77
2020/12/27 05:38:04;;;;;;;2.40;2.20;;;;;;;;;;4430175;32;20502;-77
2020/12/27 05:40:33;;;;;;;4.10;2.87;;;;;;;;;;4435824;32;20599;-77
2020/12/27 05:42:58;;;;;;;2.30;2.07;;;;;;;;;;4435940;32;20137;-77
2020/12/27 05:45:23;;;;;;;3.37;2.30;;;;;;;;;;4422256;32;20533;-78
2020/12/27 05:47:48;;;;;;;2.73;2.50;;;;;;;;;;4435797;32;20157;-77
2020/12/27 05:50:14;;;;;;;2.67;2.00;;;;;;;;;;4435925;32;20555;-79
2020/12/27 05:52:43;;;;;;;2.80;2.20;;;;;;;;;;4421502;32;20251;-78
2020/12/27 05:55:13;;;;;;;2.33;1.93;;;;;;;;;;4421545;32;20165;-77
2020/12/27 05:57:40;;;;;;;2.43;2.20;;;;;;;;;;4436480;32;20156;-78
2020/12/27 06:00:05;;;;;;;2.70;2.33;;;;;;;;;;4422122;32;20173;-80
2020/12/27 06:02:36;;;;;;;2.70;2.20;;;;;;;;;;4436163;32;20499;-79
2020/12/27 06:05:12;;;;;;;2.80;2.40;;;;;;;;;;4421913;32;20231;-78
2020/12/27 06:07:41;;;;;;;2.50;2.27;;;;;;;;;;4435428;32;20138;-78
2020/12/27 06:10:27;;;;;;;2.67;2.17;;;;;;;;;;4435750;32;20424;-78
2020/12/27 06:13:01;;;;;;;3.07;2.33;;;;;;;;;;4421746;32;20257;-77
2020/12/27 06:15:27;;;;;;;2.83;2.23;;;;;;;;;;4421370;32;20488;-77
2020/12/27 06:17:52;;;;;;;2.77;2.30;;;;;;;;;;4421912;32;20192;-76
2020/12/27 06:20:19;;;;;;;4.43;2.40;;;;;;;;;;4436142;32;20137;-76
2020/12/27 06:22:53;;;;;;;2.63;2.13;;;;;;;;;;4421365;32;20632;-78
2020/12/27 06:25:19;;;;;;;3.40;2.10;;;;;;;;;;4421282;32;20569;-75
2020/12/27 06:27:44;;;;;;;2.43;1.80;;;;;;;;;;4435287;32;20164;-75
2020/12/27 06:30:20;;;;;;;1.87;1.77;;;;;;;;;;4421479;32;20203;-77
2020/12/27 06:32:53;;;;;;;2.53;2.00;;;;;;;;;;4421124;32;20459;-76
2020/12/27 06:35:27;;;;;;;7.73;2.00;;;;;;;;;;4421256;32;20161;-77
2020/12/27 06:37:52;;;;;;;2.53;1.60;;;;;;;;;;4421797;32;20193;-77
2020/12/27 06:40:18;;;;;;;1.87;1.77;;;;;;;;;;4435644;32;20236;-76
2020/12/27 06:42:44;;;;;;;2.27;1.70;;;;;;;;;;4435799;32;20129;-76
2020/12/27 06:45:24;;;;;;;1.80;1.50;;;;;;;;;;4421249;32;20586;-76
2020/12/27 06:47:56;;;;;;;2.67;1.67;;;;;;;;;;4436690;32;20197;-76
2020/12/27 06:50:23;;;;;;;1.70;1.60;;;;;;;;;;4421314;32;20205;-76
2020/12/27 06:52:48;;;;;;;1.90;1.30;;;;;;;;;;4435899;32;20161;-77
2020/12/27 06:55:42;;;;;;;2.20;1.70;;;;;;;;;;4413973;32;20222;-77
2020/12/27 06:58:13;;;;;;;1.93;1.77;;;;;;;;;;4407133;32;20173;-76
2020/12/27 07:00:39;;;;;;;2.30;1.53;;;;;;;;;;4406400;32;20162;-76
2020/12/27 07:03:05;;;;;;;1.93;1.83;;;;;;;;;;4419734;32;20134;-76
2020/12/27 07:05:31;;;;;;;3.43;1.47;;;;;;;;;;4422816;32;20217;-77
2020/12/27 07:07:56;;;;;;;1.50;1.40;;;;;;;;;;4422398;32;20164;-77
2020/12/27 07:10:22;;;;;;;1.73;1.23;;;;;;;;;;4422919;32;20170;-76
2020/12/27 07:12:50;;;;;;;1.33;1.23;;;;;;;;;;4422323;32;20188;-76
2020/12/27 07:15:16;;;;;;;2.00;1.80;;;;;;;;;;4408601;32;20188;-76
2020/12/27 07:17:41;;;;;;;1.40;1.30;;;;;;;;;;4423050;32;20158;-77
2020/12/27 07:20:15;;;;;;;1.20;1.10;;;;;;;;;;4408931;32;20579;-77
2020/12/27 07:22:40;;;;;;;1.40;1.30;;;;;;;;;;4422379;32;20149;-76
2020/12/27 07:25:05;;;;;;;3.23;1.20;;;;;;;;;;4422863;32;20145;-76
2020/12/27 07:27:35;;;;;;;1.47;1.00;;;;;;;;;;4422466;32;20134;-77
2020/12/27 07:30:01;;;;;;;1.20;1.10;;;;;;;;;;4408309;32;20170;-76
2020/12/27 07:32:26;;;;;;;1.47;1.20;;;;;;;;;;4423724;32;20198;-77
2020/12/27 07:34:52;;;;;;;1.90;1.20;;;;;;;;;;4422625;32;20237;-77
2020/12/27 07:37:22;;;;;;;1.53;1.10;;;;;;;;;;4410967;32;20169;-77
2020/12/27 07:39:57;;;;;;;1.00;0.90;;;;;;;;;;4437571;32;20179;-76
2020/12/27 07:42:29;;;;;;;1.93;1.10;;;;;;;;;;4437220;32;20176;-76
2020/12/27 07:44:58;;;;;;;1.50;1.40;;;;;;;;;;4437658;32;20145;-76
2020/12/27 07:47:24;;;;;;;2.13;1.13;;;;;;;;;;4423760;32;20185;-77
2020/12/27 07:50:08;;;;;;;1.93;1.10;;;;;;;;;;4438020;32;20184;-78
2020/12/27 07:52:50;;;;;;;1.20;1.10;;;;;;;;;;4437448;32;20137;-77
2020/12/27 07:55:22;;;;;;;1.20;1.03;;;;;;;;;;4437546;32;20168;-79
2020/12/27 07:57:47;;;;;;;1.93;1.10;;;;;;;;;;4423424;32;20169;-77
2020/12/27 08:00:13;;;;;;;1.00;0.87;;;;;;;;;;4437090;32;20157;-77
2020/12/27 08:02:41;;;;;;;1.50;1.30;;;;;;;;;;4423561;32;20161;-76
2020/12/27 08:05:08;;;;;;;1.50;1.10;;;;;;;;;;4436818;32;20145;-77
2020/12/27 08:07:34;;;;;;;1.13;1.00;;;;;;;;;;4437997;32;20145;-80
2020/12/27 08:10:11;;;;;;;2.67;1.20;;;;;;;;;;4437361;32;20191;-77
2020/12/27 08:12:37;;;;;;;2.50;1.20;;;;;;;;;;4423317;32;20510;-77
2020/12/27 08:15:06;;;;;;;2.17;0.93;;;;;;;;;;4422932;32;20265;-78
2020/12/27 08:17:32;;;;;;;1.23;1.00;;;;;;;;;;4437021;32;20165;-76
2020/12/27 08:20:01;;;;;;;1.70;1.20;;;;;;;;;;4437217;32;20159;-76
2020/12/27 08:22:26;;;;;;;1.40;1.03;;;;;;;;;;4436899;32;20164;-77
2020/12/27 08:24:51;;;;;;;1.13;1.03;;;;;;;;;;4422711;32;20197;-78
2020/12/27 08:27:20;;;;;;;1.00;0.97;;;;;;;;;;4437584;32;20153;-79
2020/12/27 08:29:45;;;;;;;1.20;1.07;;;;;;;;;;4423090;32;20166;-73
2020/12/27 08:32:10;;;;;;;2.57;1.30;;;;;;;;;;4422631;32;20161;-78
2020/12/27 08:34:35;;;;;;;1.30;1.20;;;;;;;;;;4436638;32;20160;-79
2020/12/27 08:37:01;;;;;;;1.20;1.10;;;;;;;;;;4436643;32;20134;-81
2020/12/27 08:39:32;;;;;;;1.10;1.00;;;;;;;;;;4422547;32;20178;-81
2020/12/27 08:42:11;;;;;;;1.80;1.30;;;;;;;;;;4422823;32;20177;-81
2020/12/27 08:44:55;;;;;;;1.67;1.27;;;;;;;;;;4422337;32;20226;-80
2020/12/27 08:47:24;;;;;;;1.10;1.00;;;;;;;;;;4422892;32;20199;-79
2020/12/27 08:49:54;;;;;;;2.30;1.00;;;;;;;;;;4420038;32;20204;-79
2020/12/27 08:52:20;;;;;;;1.07;0.97;;;;;;;;;;4436815;32;20230;-79
2020/12/27 08:54:49;;;;;;;1.00;1.00;;;;;;;;;;4422908;32;20173;-78
2020/12/27 08:57:15;;;;;;;1.00;0.90;;;;;;;;;;4422084;32;20169;-79
2020/12/27 08:59:40;;;;;;;1.07;0.83;;;;;;;;;;4436447;32;20137;-78
2020/12/27 09:02:09;;;;;;;1.10;0.90;;;;;;;;;;4422001;32;20192;-78
2020/12/27 09:04:34;;;;;;;1.13;0.90;;;;;;;;;;4422411;32;20647;-80
2020/12/27 09:06:59;;;;;;;1.47;0.93;;;;;;;;;;4436028;32;20137;-79
2020/12/27 09:09:25;;;;;;;1.60;1.00;;;;;;;;;;4421918;32;20158;-79
2020/12/27 09:11:50;;;;;;;0.90;0.80;;;;;;;;;;4436475;32;20141;-77
2020/12/27 09:14:31;;;;;;;2.17;1.07;;;;;;;;;;4422065;32;20570;-79
2020/12/27 09:17:01;;;;;;;1.13;0.90;;;;;;;;;;4436220;32;20149;-79
2020/12/27 09:19:29;;;;;;;0.70;0.70;;;;;;;;;;4436089;32;20563;-79
2020/12/27 09:21:54;;;;;;;1.20;0.90;;;;;;;;;;4436204;32;20172;-77
2020/12/27 09:24:19;;;;;;;1.60;0.97;;;;;;;;;;4407443;32;20169;-78
2020/12/27 09:26:45;;;;;;;1.30;0.90;;;;;;;;;;4428267;32;20149;-78
2020/12/27 09:29:14;;;;;;;0.97;0.70;;;;;;;;;;4435392;32;20171;-77
2020/12/27 09:31:39;;;;;;;1.40;1.03;;;;;;;;;;4421938;32;20502;-77
2020/12/27 09:34:04;;;;;;;1.03;0.70;;;;;;;;;;4422010;32;20254;-78
2020/12/27 09:36:30;;;;;;;2.10;0.80;;;;;;;;;;4421695;32;20177;-79
2020/12/27 09:38:55;;;;;;;0.90;0.70;;;;;;;;;;4422126;32;20161;-79
2020/12/27 09:41:20;;;;;;;2.33;1.30;;;;;;;;;;4421884;32;20187;-78
2020/12/27 09:43:53;;;;;;;0.73;0.73;;;;;;;;;;4435842;32;20222;-78
2020/12/27 09:46:37;;;;;;;1.87;0.80;;;;;;;;;;4435826;32;20160;-79
2020/12/27 09:49:14;;;;;;;1.80;0.77;;;;;;;;;;4421692;32;20216;-79
2020/12/27 09:51:39;;;;;;;0.60;0.50;;;;;;;;;;4436210;32;20171;-79
2020/12/27 09:54:08;;;;;;;1.20;0.80;;;;;;;;;;4421580;32;20165;-78
2020/12/27 09:56:40;;;;;;;1.10;0.80;;;;;;;;;;4422210;32;20161;-79
2020/12/27 09:59:05;;;;;;;0.70;0.60;;;;;;;;;;4435641;32;20133;-78
2020/12/27 10:01:31;;;;;;;1.87;0.70;;;;;;;;;;4435874;32;20137;-79
2020/12/27 10:03:56;;;;;;;1.00;0.67;;;;;;;;;;4421235;32;20286;-77
2020/12/27 10:06:21;;;;;;;3.67;1.87;;;;;;;;;;4421538;32;20196;-79
2020/12/27 10:08:47;;;;;;;0.90;0.70;;;;;;;;;;4434120;32;20168;-78
2020/12/27 10:11:12;;;;;;;0.70;0.70;;;;;;;;;;4420418;32;20196;-79
2020/12/27 10:13:37;;;;;;;1.73;0.80;;;;;;;;;;4421260;32;20173;-81
2020/12/27 10:16:03;;;;;;;1.20;0.77;;;;;;;;;;4421026;32;20165;-80
2020/12/27 10:18:28;;;;;;;1.20;0.90;;;;;;;;;;4420724;32;20157;-79
2020/12/27 10:20:53;;;;;;;0.60;0.60;;;;;;;;;;4419416;32;20180;-80
2020/12/27 10:23:19;;;;;;;1.40;0.90;;;;;;;;;;4419506;32;20601;-79
2020/12/27 10:25:44;;;;;;;0.73;0.70;;;;;;;;;;4421534;32;20157;-79
2020/12/27 10:28:10;;;;;;;0.93;0.67;;;;;;;;;;4409069;32;20559;-79
2020/12/27 10:30:35;;;;;;;1.77;1.20;;;;;;;;;;4421222;32;20582;-78
2020/12/27 10:33:00;;;;;;;0.87;0.70;;;;;;;;;;4422088;32;20575;-79
2020/12/27 10:35:26;;;;;;;0.70;0.70;;;;;;;;;;4420857;32;20169;-81
2020/12/27 10:37:59;;;;;;;1.65;0.90;;;;;;;;;;4437488;32;20197;-88
2020/12/27 10:40:24;;;;;;;0.65;0.65;;;;;;;;;;4425243;32;20161;-85
2020/12/27 10:42:50;;;;;;;1.30;0.77;;;;;;;;;;4425041;32;20202;-81
2020/12/27 10:45:19;;;;;;;0.60;0.60;;;;;;;;;;4424216;32;20195;-82
2020/12/27 10:47:51;;;;;;;0.93;0.77;;;;;;;;;;4439206;32;20232;-82
2020/12/27 10:50:17;;;;;;;1.10;0.70;;;;;;;;;;4424125;32;20169;-82
2020/12/27 10:52:42;;;;;;;1.13;0.70;;;;;;;;;;4424010;32;20204;-82
2020/12/27 10:55:14;;;;;;;0.80;0.70;;;;;;;;;;4439041;32;20165;-81
2020/12/27 10:57:41;;;;;;;1.00;0.70;;;;;;;;;;4424428;32;20165;-81
2020/12/27 11:00:06;;;;;;;1.87;0.80;;;;;;;;;;4424111;32;20222;-82
2020/12/27 11:02:32;;;;;;;1.10;0.80;;;;;;;;;;4423629;32;20609;-83
2020/12/27 11:04:57;;;;;;;0.85;0.85;;;;;;;;;;4423816;32;20191;-82
2020/12/27 11:07:22;;;;;;;1.50;1.30;;;;;;;;;;4424130;32;20169;-83
2020/12/27 11:09:53;;;;;;;1.63;1.03;;;;;;;;;;4424198;32;20161;-83
2020/12/27 11:12:20;;;;;;;1.27;1.07;;;;;;;;;;4424296;32;20177;-82
2020/12/27 11:14:47;;;;;;;1.10;1.00;;;;;;;;;;4423580;32;20165;-83
2020/12/27 11:17:17;;;;;;;1.03;0.90;;;;;;;;;;4423544;32;20253;-82
2020/12/27 11:19:42;;;;;;;0.93;0.80;;;;;;;;;;4423699;32;20196;-81
2020/12/27 11:22:07;;;;;;;1.00;0.90;;;;;;;;;;4423590;32;20177;-84
2020/12/27 11:24:33;;;;;;;1.40;1.00;;;;;;;;;;4423478;32;20529;-83
2020/12/27 11:27:09;;;;;;;1.30;1.10;;;;;;;;;;4423484;32;20477;-81
2020/12/27 11:29:35;;;;;;;0.90;0.80;;;;;;;;;;4423349;32;20525;-81
2020/12/27 11:32:00;;;;;;;1.73;0.83;;;;;;;;;;4423661;32;20179;-82
2020/12/27 11:34:25;;;;;;;3.63;1.10;;;;;;;;;;4423766;32;20612;-81
2020/12/27 11:36:51;;;;;;;1.33;1.10;;;;;;;;;;4423414;32;20154;-81
2020/12/27 11:39:16;;;;;;;3.10;1.13;;;;;;;;;;4423198;32;20193;-81
2020/12/27 11:41:41;;;;;;;1.37;1.00;;;;;;;;;;4423515;32;20244;-82
2020/12/27 11:44:07;;;;;;;1.47;1.07;;;;;;;;;;4423137;32;20162;-81
2020/12/27 11:46:33;;;;;;;1.17;1.00;;;;;;;;;;4423614;32;20205;-80
2020/12/27 11:48:59;;;;;;;1.10;1.00;;;;;;;;;;4422908;32;20609;-80
2020/12/27 11:51:24;;;;;;;1.67;1.10;;;;;;;;;;4422763;32;20165;-83
2020/12/27 11:53:49;;;;;;;1.47;1.17;;;;;;;;;;4423126;32;20213;-83
2020/12/27 11:56:19;;;;;;;1.40;1.00;;;;;;;;;;4422841;32;20162;-84
2020/12/27 11:58:45;;;;;;;1.77;1.17;;;;;;;;;;4436848;32;20488;-83
2020/12/27 12:01:11;;;;;;;1.92;1.30;;;;;;;;;;4422918;32;20179;-82
2020/12/27 12:03:36;;;;;;;1.50;1.20;;;;;;;;;;4423355;32;20173;-82
2020/12/27 12:06:02;;;;;;;2.30;1.40;;;;;;;;;;4422878;32;20245;-83
2020/12/27 12:08:27;;;;;;;1.40;1.30;;;;;;;;;;4423319;32;20187;-80
2020/12/27 12:10:53;;;;;;;1.70;1.30;;;;;;;;;;4423245;32;20225;-80
2020/12/27 12:13:22;;;;;;;2.53;1.40;;;;;;;;;;4422535;32;20158;-81
2020/12/27 12:15:52;;;;;;;1.50;1.40;;;;;;;;;;4422806;32;20158;-83
2020/12/27 12:18:17;;;;;;;5.17;1.50;;;;;;;;;;4423046;32;20658;-81
2020/12/27 12:20:45;;;;;;;1.63;1.37;;;;;;;;;;4422466;32;20165;-81
2020/12/27 12:23:10;;;;;;;1.97;1.50;;;;;;;;;;4422845;32;20168;-80
2020/12/27 12:25:35;;;;;;;4.30;1.63;;;;;;;;;;4423273;32;20222;-81
2020/12/27 12:28:01;;;;;;;3.00;1.70;;;;;;;;;;4422954;32;20188;-82
2020/12/27 12:30:32;;;;;;;3.00;1.67;;;;;;;;;;4422794;32;20164;-83
2020/12/27 12:32:57;;;;;;;1.70;1.60;;;;;;;;;;4422274;32;20192;-83
2020/12/27 12:35:22;;;;;;;3.87;2.03;;;;;;;;;;4422276;32;20542;-83
2020/12/27 12:37:48;;;;;;;2.63;1.73;;;;;;;;;;4422792;32;20214;-82
2020/12/27 12:40:13;;;;;;;1.83;1.60;;;;;;;;;;4422773;32;20180;-81
2020/12/27 12:42:38;;;;;;;2.80;2.07;;;;;;;;;;4422292;32;20205;-83
2020/12/27 12:45:04;;;;;;;2.23;1.80;;;;;;;;;;4422551;32;20214;-82
2020/12/27 12:47:32;;;;;;;3.77;1.60;;;;;;;;;;4422167;32;20164;-82
2020/12/27 12:49:58;;;;;;;1.93;1.53;;;;;;;;;;4419514;32;20181;-82
2020/12/27 12:52:25;;;;;;;2.13;1.60;;;;;;;;;;4419699;32;20184;-83
2020/12/27 12:54:51;;;;;;;1.63;1.50;;;;;;;;;;4419880;32;20170;-83
2020/12/27 12:57:16;;;;;;;2.00;1.50;;;;;;;;;;4419663;32;20165;-83
2020/12/27 12:59:41;;;;;;;1.33;1.10;;;;;;;;;;4419784;32;20184;-82
2020/12/27 13:02:09;;;;;;;3.57;1.50;;;;;;;;;;4418826;32;20162;-81
2020/12/27 13:04:35;;;;;;;3.43;1.60;;;;;;;;;;4419540;32;20185;-81
2020/12/27 13:07:00;;;;;;;2.90;1.17;;;;;;;;;;4421129;32;20426;-82
2020/12/27 13:09:25;;;;;;;2.53;1.17;;;;;;;;;;4419403;32;20177;-83
2020/12/27 13:11:51;;;;;;;2.40;1.03;;;;;;;;;;4419224;32;20184;-82
2020/12/27 13:14:16;;;;;;;1.87;0.90;;;;;;;;;;4419751;32;20227;-83
2020/12/27 13:16:44;;;;;;;1.20;0.70;;;;;;;;;;4419354;32;20225;-84
2020/12/27 13:19:09;;;;;;;1.37;0.73;;;;;;;;;;4419380;32;20157;-85
2020/12/27 13:21:34;;;;;;;1.00;0.67;;;;;;;;;;4419165;32;20636;-82
2020/12/27 13:24:05;;;;;;;1.70;0.70;;;;;;;;;;4419080;32;20659;-83
2020/12/27 13:26:34;;;;;;;2.17;0.53;;;;;;;;;;4419178;32;20169;-82
2020/12/27 13:29:00;;;;;;;1.47;0.90;;;;;;;;;;4419293;32;20480;-82
2020/12/27 13:31:25;;;;;;;1.47;0.93;;;;;;;;;;4419632;32;20192;-84
2020/12/27 13:33:50;;;;;;;1.93;1.20;;;;;;;;;;4419018;32;20487;-82
2020/12/27 13:36:15;;;;;;;2.67;0.97;;;;;;;;;;4419040;32;20173;-78
2020/12/27 13:38:41;;;;;;;0.93;0.60;;;;;;;;;;4419447;32;20188;-78
2020/12/27 13:41:06;;;;;;;3.07;0.87;;;;;;;;;;4419018;32;20188;-77
2020/12/27 13:43:31;;;;;;;3.17;1.03;;;;;;;;;;4419334;32;20164;-76
2020/12/27 13:45:56;;;;;;;3.73;0.80;;;;;;;;;;4414349;32;20177;-78
2020/12/27 13:48:21;;;;;;;1.77;0.70;;;;;;;;;;4417921;32;20256;-78
2020/12/27 13:50:47;;;;;;;1.17;0.60;;;;;;;;;;4419007;32;20550;-78
2020/12/27 13:53:12;;;;;;;2.83;0.80;;;;;;;;;;4418737;32;20668;-77
2020/12/27 13:55:38;;;;;;;1.67;0.70;;;;;;;;;;4418674;32;20188;-78
2020/12/27 13:58:03;;;;;;;1.10;0.50;;;;;;;;;;4419126;32;20161;-77
2020/12/27 14:00:28;;;;;;;1.03;0.70;;;;;;;;;;4419476;32;20631;-77
2020/12/27 14:02:54;;;;;;;1.93;0.50;;;;;;;;;;4418677;32;20169;-78
2020/12/27 14:05:19;;;;;;;1.20;0.70;;;;;;;;;;4420439;32;20220;-78
2020/12/27 14:07:44;;;;;;;0.70;0.57;;;;;;;;;;4405677;32;20172;-79
2020/12/27 14:10:10;;;;;;;0.57;0.50;;;;;;;;;;4403599;32;20503;-78
2020/12/27 14:12:35;;;;;;;1.37;0.70;;;;;;;;;;4404304;32;20224;-77
2020/12/27 14:15:00;;;;;;;3.10;1.00;;;;;;;;;;4406782;32;20165;-77
2020/12/27 14:17:25;;;;;;;4.10;1.43;;;;;;;;;;4414131;32;20189;-78
2020/12/27 14:19:51;;;;;;;2.40;1.50;;;;;;;;;;4420703;32;20195;-78
2020/12/27 14:22:16;;;;;;;4.10;1.27;;;;;;;;;;4421753;32;20170;-78
2020/12/27 14:24:41;;;;;;;1.20;0.60;;;;;;;;;;4421938;32;20217;-78
2020/12/27 14:27:06;;;;;;;0.77;0.47;;;;;;;;;;4421825;32;20165;-78
2020/12/27 14:29:32;;;;;;;1.70;0.50;;;;;;;;;;4421844;32;20189;-78
2020/12/27 14:31:57;;;;;;;3.00;0.70;;;;;;;;;;4421661;32;20247;-78
2020/12/27 14:34:22;;;;;;;1.20;0.50;;;;;;;;;;4421534;32;20197;-78
2020/12/27 14:36:47;;;;;;;1.83;0.50;;;;;;;;;;4421608;32;20215;-78